sensor_id;sensor_type;location;lat;lon;timestamp;P1;durP1;ratioP1;P2;durP2;ratioP2
14613;SDS011;7393;51.446;6.800;2024-01-11T00:02:07;40.03;;;20.47;;
14613;SDS011;7393;51.446;6.800;2024-01-11T00:04:36;36.00;;;19.70;;
14613;SDS011;7393;51.446;6.800;2024-01-11T00:07:02;34.53;;;18.87;;
14613;SDS011;7393;51.446;6.800;2024-01-11T00:09:29;35.90;;;19.70;;
14613;SDS011;7393;51.446;6.800;2024-01-11T00:11:56;35.53;;;19.57;;
14613;SDS011;7393;51.446;6.800;2024-01-11T00:14:23;35.77;;;19.80;;
14613;SDS011;7393;51.446;6.800;2024-01-11T00:16:49;40.43;;;19.97;;
14613;SDS011;7393;51.446;6.800;2024-01-11T00:19:17;39.07;;;18.77;;
14613;SDS011;7393;51.446;6.800;2024-01-11T00:21:46;35.57;;;18.67;;
14613;SDS011;7393;51.446;6.800;2024-01-11T00:24:13;36.37;;;19.43;;
14613;SDS011;7393;51.446;6.800;2024-01-11T00:26:39;41.57;;;20.37;;
14613;SDS011;7393;51.446;6.800;2024-01-11T00:29:06;38.67;;;19.37;;
14613;SDS011;7393;51.446;6.800;2024-01-11T00:31:33;36.07;;;19.97;;
14613;SDS011;7393;51.446;6.800;2024-01-11T00:34:00;36.13;;;19.60;;
14613;SDS011;7393;51.446;6.800;2024-01-11T00:36:27;33.23;;;18.70;;
14613;SDS011;7393;51.446;6.800;2024-01-11T00:38:56;34.27;;;18.43;;
14613;SDS011;7393;51.446;6.800;2024-01-11T00:41:22;33.73;;;19.07;;
14613;SDS011;7393;51.446;6.800;2024-01-11T00:43:49;39.27;;;20.27;;
14613;SDS011;7393;51.446;6.800;2024-01-11T00:46:16;33.87;;;19.83;;
14613;SDS011;7393;51.446;6.800;2024-01-11T00:48:42;38.33;;;19.00;;
14613;SDS011;7393;51.446;6.800;2024-01-11T00:51:09;35.60;;;20.07;;
14613;SDS011;7393;51.446;6.800;2024-01-11T00:53:36;40.60;;;20.23;;
14613;SDS011;7393;51.446;6.800;2024-01-11T00:56:04;39.03;;;20.77;;
14613;SDS011;7393;51.446;6.800;2024-01-11T00:58:31;33.77;;;18.63;;
14613;SDS011;7393;51.446;6.800;2024-01-11T01:00:58;37.07;;;19.63;;
14613;SDS011;7393;51.446;6.800;2024-01-11T01:03:25;39.83;;;20.07;;
14613;SDS011;7393;51.446;6.800;2024-01-11T01:05:52;40.87;;;20.63;;
14613;SDS011;7393;51.446;6.800;2024-01-11T01:08:18;36.60;;;19.97;;
14613;SDS011;7393;51.446;6.800;2024-01-11T01:10:45;40.03;;;21.27;;
14613;SDS011;7393;51.446;6.800;2024-01-11T01:13:13;40.80;;;20.97;;
14613;SDS011;7393;51.446;6.800;2024-01-11T01:15:40;38.60;;;20.60;;
14613;SDS011;7393;51.446;6.800;2024-01-11T01:18:07;42.73;;;20.60;;
14613;SDS011;7393;51.446;6.800;2024-01-11T01:20:34;42.13;;;21.43;;
14613;SDS011;7393;51.446;6.800;2024-01-11T01:23:01;42.37;;;21.30;;
14613;SDS011;7393;51.446;6.800;2024-01-11T01:25:27;38.50;;;20.13;;
14613;SDS011;7393;51.446;6.800;2024-01-11T01:27:54;40.77;;;20.23;;
14613;SDS011;7393;51.446;6.800;2024-01-11T01:30:23;39.97;;;20.07;;
14613;SDS011;7393;51.446;6.800;2024-01-11T01:32:49;37.93;;;20.37;;
14613;SDS011;7393;51.446;6.800;2024-01-11T01:35:16;42.07;;;21.20;;
14613;SDS011;7393;51.446;6.800;2024-01-11T01:37:43;42.80;;;20.37;;
14613;SDS011;7393;51.446;6.800;2024-01-11T01:40:10;38.77;;;19.90;;
14613;SDS011;7393;51.446;6.800;2024-01-11T01:42:40;42.37;;;20.27;;
14613;SDS011;7393;51.446;6.800;2024-01-11T01:45:08;39.60;;;20.03;;
14613;SDS011;7393;51.446;6.800;2024-01-11T01:47:36;39.80;;;20.63;;
14613;SDS011;7393;51.446;6.800;2024-01-11T01:50:04;36.60;;;17.93;;
14613;SDS011;7393;51.446;6.800;2024-01-11T01:52:32;40.07;;;21.77;;
14613;SDS011;7393;51.446;6.800;2024-01-11T01:55:00;39.57;;;20.30;;
14613;SDS011;7393;51.446;6.800;2024-01-11T01:57:29;42.63;;;22.37;;
14613;SDS011;7393;51.446;6.800;2024-01-11T01:59:58;36.93;;;20.50;;
14613;SDS011;7393;51.446;6.800;2024-01-11T02:02:26;43.87;;;21.00;;
14613;SDS011;7393;51.446;6.800;2024-01-11T02:04:56;37.70;;;19.90;;
14613;SDS011;7393;51.446;6.800;2024-01-11T02:07:23;37.93;;;20.00;;
14613;SDS011;7393;51.446;6.800;2024-01-11T02:09:50;42.07;;;21.77;;
14613;SDS011;7393;51.446;6.800;2024-01-11T02:12:18;42.47;;;22.10;;
14613;SDS011;7393;51.446;6.800;2024-01-11T02:14:45;39.80;;;21.10;;
14613;SDS011;7393;51.446;6.800;2024-01-11T02:17:12;41.93;;;22.03;;
14613;SDS011;7393;51.446;6.800;2024-01-11T02:19:39;42.87;;;21.23;;
14613;SDS011;7393;51.446;6.800;2024-01-11T02:22:12;39.97;;;20.73;;
14613;SDS011;7393;51.446;6.800;2024-01-11T02:24:44;41.73;;;21.20;;
14613;SDS011;7393;51.446;6.800;2024-01-11T02:27:10;41.20;;;21.90;;
14613;SDS011;7393;51.446;6.800;2024-01-11T02:29:37;36.73;;;20.43;;
14613;SDS011;7393;51.446;6.800;2024-01-11T02:32:04;40.90;;;21.93;;
14613;SDS011;7393;51.446;6.800;2024-01-11T02:34:31;39.33;;;20.73;;
14613;SDS011;7393;51.446;6.800;2024-01-11T02:36:58;37.47;;;20.47;;
14613;SDS011;7393;51.446;6.800;2024-01-11T02:39:25;45.97;;;22.30;;
14613;SDS011;7393;51.446;6.800;2024-01-11T02:41:55;40.20;;;21.07;;
14613;SDS011;7393;51.446;6.800;2024-01-11T02:44:23;39.40;;;20.77;;
14613;SDS011;7393;51.446;6.800;2024-01-11T02:46:50;40.90;;;21.67;;
14613;SDS011;7393;51.446;6.800;2024-01-11T02:49:17;43.53;;;22.33;;
14613;SDS011;7393;51.446;6.800;2024-01-11T02:51:44;40.63;;;20.90;;
14613;SDS011;7393;51.446;6.800;2024-01-11T02:54:11;41.00;;;20.53;;
14613;SDS011;7393;51.446;6.800;2024-01-11T02:56:38;36.03;;;19.83;;
14613;SDS011;7393;51.446;6.800;2024-01-11T02:59:06;40.20;;;20.37;;
14613;SDS011;7393;51.446;6.800;2024-01-11T03:01:32;40.90;;;20.97;;
14613;SDS011;7393;51.446;6.800;2024-01-11T03:03:59;39.13;;;20.30;;
14613;SDS011;7393;51.446;6.800;2024-01-11T03:06:26;40.93;;;20.90;;
14613;SDS011;7393;51.446;6.800;2024-01-11T03:08:53;44.97;;;22.40;;
14613;SDS011;7393;51.446;6.800;2024-01-11T03:11:20;38.37;;;20.43;;
14613;SDS011;7393;51.446;6.800;2024-01-11T03:13:46;44.23;;;21.43;;
14613;SDS011;7393;51.446;6.800;2024-01-11T03:16:15;39.63;;;20.23;;
14613;SDS011;7393;51.446;6.800;2024-01-11T03:18:41;42.17;;;21.83;;
14613;SDS011;7393;51.446;6.800;2024-01-11T03:21:08;39.20;;;21.13;;
14613;SDS011;7393;51.446;6.800;2024-01-11T03:23:35;40.33;;;21.57;;
14613;SDS011;7393;51.446;6.800;2024-01-11T03:26:02;40.73;;;20.90;;
14613;SDS011;7393;51.446;6.800;2024-01-11T03:28:29;41.60;;;20.57;;
14613;SDS011;7393;51.446;6.800;2024-01-11T03:30:56;43.63;;;21.27;;
14613;SDS011;7393;51.446;6.800;2024-01-11T03:33:24;38.90;;;21.17;;
14613;SDS011;7393;51.446;6.800;2024-01-11T03:35:51;39.77;;;20.87;;
14613;SDS011;7393;51.446;6.800;2024-01-11T03:38:18;38.07;;;19.27;;
14613;SDS011;7393;51.446;6.800;2024-01-11T03:40:45;41.50;;;20.63;;
14613;SDS011;7393;51.446;6.800;2024-01-11T03:43:12;38.43;;;19.93;;
14613;SDS011;7393;51.446;6.800;2024-01-11T03:45:38;40.77;;;20.43;;
14613;SDS011;7393;51.446;6.800;2024-01-11T03:48:05;41.20;;;21.10;;
14613;SDS011;7393;51.446;6.800;2024-01-11T03:50:33;37.63;;;20.80;;
14613;SDS011;7393;51.446;6.800;2024-01-11T03:53:00;39.90;;;20.73;;
14613;SDS011;7393;51.446;6.800;2024-01-11T03:55:27;41.30;;;21.13;;
14613;SDS011;7393;51.446;6.800;2024-01-11T03:57:54;38.77;;;20.63;;
14613;SDS011;7393;51.446;6.800;2024-01-11T04:00:21;40.47;;;20.73;;
14613;SDS011;7393;51.446;6.800;2024-01-11T04:02:48;37.97;;;19.60;;
14613;SDS011;7393;51.446;6.800;2024-01-11T04:05:15;35.17;;;19.77;;
14613;SDS011;7393;51.446;6.800;2024-01-11T04:07:43;41.30;;;21.83;;
14613;SDS011;7393;51.446;6.800;2024-01-11T04:10:10;42.70;;;22.10;;
14613;SDS011;7393;51.446;6.800;2024-01-11T04:12:36;44.83;;;21.23;;
14613;SDS011;7393;51.446;6.800;2024-01-11T04:15:03;39.67;;;19.97;;
14613;SDS011;7393;51.446;6.800;2024-01-11T04:17:31;35.70;;;19.30;;
14613;SDS011;7393;51.446;6.800;2024-01-11T04:19:57;40.10;;;19.70;;
14613;SDS011;7393;51.446;6.800;2024-01-11T04:22:25;42.87;;;20.67;;
14613;SDS011;7393;51.446;6.800;2024-01-11T04:24:55;37.27;;;19.93;;
14613;SDS011;7393;51.446;6.800;2024-01-11T04:27:21;43.53;;;21.07;;
14613;SDS011;7393;51.446;6.800;2024-01-11T04:29:48;48.93;;;21.87;;
14613;SDS011;7393;51.446;6.800;2024-01-11T04:32:15;39.23;;;20.50;;
14613;SDS011;7393;51.446;6.800;2024-01-11T04:34:42;37.80;;;20.00;;
14613;SDS011;7393;51.446;6.800;2024-01-11T04:37:08;39.87;;;21.53;;
14613;SDS011;7393;51.446;6.800;2024-01-11T04:39:35;43.07;;;22.30;;
14613;SDS011;7393;51.446;6.800;2024-01-11T04:42:04;42.40;;;21.40;;
14613;SDS011;7393;51.446;6.800;2024-01-11T04:44:30;44.67;;;20.83;;
14613;SDS011;7393;51.446;6.800;2024-01-11T04:46:57;37.60;;;20.43;;
14613;SDS011;7393;51.446;6.800;2024-01-11T04:49:24;41.03;;;21.77;;
14613;SDS011;7393;51.446;6.800;2024-01-11T04:51:51;38.40;;;19.70;;
14613;SDS011;7393;51.446;6.800;2024-01-11T04:54:18;38.00;;;19.27;;
14613;SDS011;7393;51.446;6.800;2024-01-11T04:56:44;41.70;;;21.37;;
14613;SDS011;7393;51.446;6.800;2024-01-11T04:59:13;41.97;;;20.80;;
14613;SDS011;7393;51.446;6.800;2024-01-11T05:01:39;37.43;;;19.57;;
14613;SDS011;7393;51.446;6.800;2024-01-11T05:04:07;36.83;;;20.67;;
14613;SDS011;7393;51.446;6.800;2024-01-11T05:06:33;40.27;;;20.50;;
14613;SDS011;7393;51.446;6.800;2024-01-11T05:09:00;42.77;;;22.27;;
14613;SDS011;7393;51.446;6.800;2024-01-11T05:11:27;38.70;;;20.17;;
14613;SDS011;7393;51.446;6.800;2024-01-11T05:13:54;36.67;;;19.80;;
14613;SDS011;7393;51.446;6.800;2024-01-11T05:16:22;41.67;;;20.47;;
14613;SDS011;7393;51.446;6.800;2024-01-11T05:18:49;38.50;;;19.53;;
14613;SDS011;7393;51.446;6.800;2024-01-11T05:21:17;38.13;;;20.00;;
14613;SDS011;7393;51.446;6.800;2024-01-11T05:23:44;41.03;;;20.50;;
14613;SDS011;7393;51.446;6.800;2024-01-11T05:26:12;41.13;;;20.97;;
14613;SDS011;7393;51.446;6.800;2024-01-11T05:28:39;40.20;;;20.30;;
14613;SDS011;7393;51.446;6.800;2024-01-11T05:31:06;38.00;;;19.73;;
14613;SDS011;7393;51.446;6.800;2024-01-11T05:33:36;42.07;;;20.27;;
14613;SDS011;7393;51.446;6.800;2024-01-11T05:36:03;36.50;;;20.23;;
14613;SDS011;7393;51.446;6.800;2024-01-11T05:38:30;37.43;;;19.60;;
14613;SDS011;7393;51.446;6.800;2024-01-11T05:40:57;38.67;;;20.17;;
14613;SDS011;7393;51.446;6.800;2024-01-11T05:43:24;38.87;;;19.37;;
14613;SDS011;7393;51.446;6.800;2024-01-11T05:45:51;40.53;;;20.53;;
14613;SDS011;7393;51.446;6.800;2024-01-11T05:48:18;42.23;;;21.87;;
14613;SDS011;7393;51.446;6.800;2024-01-11T05:50:46;42.73;;;22.27;;
14613;SDS011;7393;51.446;6.800;2024-01-11T05:53:13;45.13;;;23.20;;
14613;SDS011;7393;51.446;6.800;2024-01-11T05:55:40;42.83;;;22.90;;
14613;SDS011;7393;51.446;6.800;2024-01-11T05:58:07;45.27;;;22.80;;
14613;SDS011;7393;51.446;6.800;2024-01-11T06:00:34;39.37;;;21.93;;
14613;SDS011;7393;51.446;6.800;2024-01-11T06:03:00;42.40;;;21.37;;
14613;SDS011;7393;51.446;6.800;2024-01-11T06:05:27;44.03;;;22.20;;
14613;SDS011;7393;51.446;6.800;2024-01-11T06:07:55;37.30;;;19.93;;
14613;SDS011;7393;51.446;6.800;2024-01-11T06:10:22;40.17;;;22.73;;
14613;SDS011;7393;51.446;6.800;2024-01-11T06:12:49;42.17;;;21.03;;
14613;SDS011;7393;51.446;6.800;2024-01-11T06:15:16;41.87;;;21.37;;
14613;SDS011;7393;51.446;6.800;2024-01-11T06:17:43;41.03;;;20.80;;
14613;SDS011;7393;51.446;6.800;2024-01-11T06:20:10;41.43;;;20.80;;
14613;SDS011;7393;51.446;6.800;2024-01-11T06:22:37;39.47;;;20.73;;
14613;SDS011;7393;51.446;6.800;2024-01-11T06:25:05;39.00;;;20.50;;
14613;SDS011;7393;51.446;6.800;2024-01-11T06:27:32;36.70;;;19.60;;
14613;SDS011;7393;51.446;6.800;2024-01-11T06:29:59;43.60;;;20.70;;
14613;SDS011;7393;51.446;6.800;2024-01-11T06:32:26;40.97;;;20.40;;
14613;SDS011;7393;51.446;6.800;2024-01-11T06:34:53;44.27;;;21.17;;
14613;SDS011;7393;51.446;6.800;2024-01-11T06:37:20;39.80;;;20.53;;
14613;SDS011;7393;51.446;6.800;2024-01-11T06:39:47;42.63;;;21.83;;
14613;SDS011;7393;51.446;6.800;2024-01-11T06:42:15;44.80;;;21.70;;
14613;SDS011;7393;51.446;6.800;2024-01-11T06:44:42;38.23;;;20.00;;
14613;SDS011;7393;51.446;6.800;2024-01-11T06:47:09;40.40;;;21.60;;
14613;SDS011;7393;51.446;6.800;2024-01-11T06:49:38;41.97;;;21.00;;
14613;SDS011;7393;51.446;6.800;2024-01-11T06:52:04;42.50;;;22.10;;
14613;SDS011;7393;51.446;6.800;2024-01-11T06:54:31;39.47;;;21.47;;
14613;SDS011;7393;51.446;6.800;2024-01-11T06:56:58;43.07;;;20.37;;
14613;SDS011;7393;51.446;6.800;2024-01-11T06:59:26;37.80;;;19.97;;
14613;SDS011;7393;51.446;6.800;2024-01-11T07:01:53;45.97;;;20.73;;
14613;SDS011;7393;51.446;6.800;2024-01-11T07:04:20;35.00;;;19.10;;
14613;SDS011;7393;51.446;6.800;2024-01-11T07:06:47;43.60;;;21.50;;
14613;SDS011;7393;51.446;6.800;2024-01-11T07:09:13;40.60;;;20.87;;
14613;SDS011;7393;51.446;6.800;2024-01-11T07:11:42;42.00;;;21.33;;
14613;SDS011;7393;51.446;6.800;2024-01-11T07:14:09;40.77;;;20.20;;
14613;SDS011;7393;51.446;6.800;2024-01-11T07:16:38;35.93;;;20.17;;
14613;SDS011;7393;51.446;6.800;2024-01-11T07:19:04;39.47;;;20.57;;
14613;SDS011;7393;51.446;6.800;2024-01-11T07:21:31;39.93;;;20.90;;
14613;SDS011;7393;51.446;6.800;2024-01-11T07:23:58;39.57;;;19.70;;
14613;SDS011;7393;51.446;6.800;2024-01-11T07:26:25;42.43;;;21.10;;
14613;SDS011;7393;51.446;6.800;2024-01-11T07:28:52;41.63;;;20.57;;
14613;SDS011;7393;51.446;6.800;2024-01-11T07:31:20;42.73;;;21.13;;
14613;SDS011;7393;51.446;6.800;2024-01-11T07:33:49;42.53;;;22.03;;
14613;SDS011;7393;51.446;6.800;2024-01-11T07:36:16;39.13;;;19.97;;
14613;SDS011;7393;51.446;6.800;2024-01-11T07:38:43;37.67;;;20.37;;
14613;SDS011;7393;51.446;6.800;2024-01-11T07:41:10;47.40;;;21.60;;
14613;SDS011;7393;51.446;6.800;2024-01-11T07:43:37;41.50;;;22.30;;
14613;SDS011;7393;51.446;6.800;2024-01-11T07:46:04;43.37;;;21.97;;
14613;SDS011;7393;51.446;6.800;2024-01-11T07:48:32;49.07;;;23.33;;
14613;SDS011;7393;51.446;6.800;2024-01-11T07:51:01;45.37;;;23.30;;
14613;SDS011;7393;51.446;6.800;2024-01-11T07:53:28;42.43;;;22.27;;
14613;SDS011;7393;51.446;6.800;2024-01-11T07:55:56;38.63;;;21.10;;
14613;SDS011;7393;51.446;6.800;2024-01-11T07:58:23;47.50;;;22.50;;
14613;SDS011;7393;51.446;6.800;2024-01-11T08:00:50;43.77;;;22.40;;
14613;SDS011;7393;51.446;6.800;2024-01-11T08:03:17;43.33;;;22.60;;
14613;SDS011;7393;51.446;6.800;2024-01-11T08:05:44;40.53;;;21.27;;
14613;SDS011;7393;51.446;6.800;2024-01-11T08:08:12;48.40;;;24.23;;
14613;SDS011;7393;51.446;6.800;2024-01-11T08:10:39;39.60;;;20.97;;
14613;SDS011;7393;51.446;6.800;2024-01-11T08:13:06;41.50;;;21.97;;
14613;SDS011;7393;51.446;6.800;2024-01-11T08:15:34;49.90;;;24.63;;
14613;SDS011;7393;51.446;6.800;2024-01-11T08:18:03;48.73;;;23.80;;
14613;SDS011;7393;51.446;6.800;2024-01-11T08:20:30;43.23;;;22.93;;
14613;SDS011;7393;51.446;6.800;2024-01-11T08:22:57;43.47;;;22.40;;
14613;SDS011;7393;51.446;6.800;2024-01-11T08:25:26;47.30;;;21.97;;
14613;SDS011;7393;51.446;6.800;2024-01-11T08:27:52;47.07;;;23.23;;
14613;SDS011;7393;51.446;6.800;2024-01-11T08:30:19;44.10;;;23.27;;
14613;SDS011;7393;51.446;6.800;2024-01-11T08:32:46;45.53;;;23.07;;
14613;SDS011;7393;51.446;6.800;2024-01-11T08:35:13;43.67;;;22.90;;
14613;SDS011;7393;51.446;6.800;2024-01-11T08:37:41;42.63;;;22.10;;
14613;SDS011;7393;51.446;6.800;2024-01-11T08:40:08;42.10;;;22.47;;
14613;SDS011;7393;51.446;6.800;2024-01-11T08:42:37;46.60;;;22.97;;
14613;SDS011;7393;51.446;6.800;2024-01-11T08:45:05;46.70;;;21.93;;
14613;SDS011;7393;51.446;6.800;2024-01-11T08:47:32;49.00;;;24.73;;
14613;SDS011;7393;51.446;6.800;2024-01-11T08:49:59;45.73;;;23.53;;
14613;SDS011;7393;51.446;6.800;2024-01-11T08:52:31;46.13;;;22.63;;
14613;SDS011;7393;51.446;6.800;2024-01-11T08:54:57;45.80;;;23.77;;
14613;SDS011;7393;51.446;6.800;2024-01-11T08:57:24;44.73;;;22.80;;
14613;SDS011;7393;51.446;6.800;2024-01-11T08:59:53;46.77;;;23.67;;
14613;SDS011;7393;51.446;6.800;2024-01-11T09:02:20;44.80;;;23.50;;
14613;SDS011;7393;51.446;6.800;2024-01-11T09:04:47;45.87;;;24.40;;
14613;SDS011;7393;51.446;6.800;2024-01-11T09:07:14;45.20;;;23.73;;
14613;SDS011;7393;51.446;6.800;2024-01-11T09:09:41;44.20;;;24.30;;
14613;SDS011;7393;51.446;6.800;2024-01-11T09:12:08;45.23;;;23.37;;
14613;SDS011;7393;51.446;6.800;2024-01-11T09:14:35;44.53;;;23.17;;
14613;SDS011;7393;51.446;6.800;2024-01-11T09:17:03;45.23;;;23.57;;
14613;SDS011;7393;51.446;6.800;2024-01-11T09:19:31;41.03;;;22.17;;
14613;SDS011;7393;51.446;6.800;2024-01-11T09:21:58;47.00;;;23.83;;
14613;SDS011;7393;51.446;6.800;2024-01-11T09:24:25;45.50;;;24.23;;
14613;SDS011;7393;51.446;6.800;2024-01-11T09:26:52;44.80;;;24.07;;
14613;SDS011;7393;51.446;6.800;2024-01-11T09:29:19;49.47;;;25.80;;
14613;SDS011;7393;51.446;6.800;2024-01-11T09:31:46;52.80;;;25.07;;
14613;SDS011;7393;51.446;6.800;2024-01-11T09:34:14;46.03;;;23.60;;
14613;SDS011;7393;51.446;6.800;2024-01-11T09:36:41;48.43;;;24.10;;
14613;SDS011;7393;51.446;6.800;2024-01-11T09:39:07;47.60;;;24.50;;
14613;SDS011;7393;51.446;6.800;2024-01-11T09:41:35;46.57;;;24.60;;
14613;SDS011;7393;51.446;6.800;2024-01-11T09:44:04;42.23;;;24.07;;
14613;SDS011;7393;51.446;6.800;2024-01-11T09:46:32;46.50;;;24.70;;
14613;SDS011;7393;51.446;6.800;2024-01-11T09:48:59;48.37;;;24.47;;
14613;SDS011;7393;51.446;6.800;2024-01-11T09:51:30;46.40;;;24.63;;
14613;SDS011;7393;51.446;6.800;2024-01-11T09:54:00;44.27;;;23.30;;
14613;SDS011;7393;51.446;6.800;2024-01-11T09:56:27;51.00;;;24.87;;
14613;SDS011;7393;51.446;6.800;2024-01-11T09:58:53;47.30;;;24.60;;
14613;SDS011;7393;51.446;6.800;2024-01-11T10:01:20;46.93;;;24.57;;
14613;SDS011;7393;51.446;6.800;2024-01-11T10:03:48;45.67;;;22.60;;
14613;SDS011;7393;51.446;6.800;2024-01-11T10:06:15;48.47;;;23.83;;
14613;SDS011;7393;51.446;6.800;2024-01-11T10:08:45;50.40;;;24.27;;
14613;SDS011;7393;51.446;6.800;2024-01-11T10:11:11;46.20;;;24.33;;
14613;SDS011;7393;51.446;6.800;2024-01-11T10:13:38;45.00;;;23.87;;
14613;SDS011;7393;51.446;6.800;2024-01-11T10:16:05;47.57;;;23.80;;
14613;SDS011;7393;51.446;6.800;2024-01-11T10:18:34;49.50;;;25.17;;
14613;SDS011;7393;51.446;6.800;2024-01-11T10:21:01;49.83;;;25.03;;
14613;SDS011;7393;51.446;6.800;2024-01-11T10:23:28;47.73;;;24.00;;
14613;SDS011;7393;51.446;6.800;2024-01-11T10:25:57;43.83;;;24.90;;
14613;SDS011;7393;51.446;6.800;2024-01-11T10:28:24;45.23;;;24.47;;
14613;SDS011;7393;51.446;6.800;2024-01-11T10:30:51;47.90;;;24.13;;
14613;SDS011;7393;51.446;6.800;2024-01-11T10:33:19;42.00;;;23.67;;
14613;SDS011;7393;51.446;6.800;2024-01-11T10:35:46;49.47;;;25.20;;
14613;SDS011;7393;51.446;6.800;2024-01-11T10:38:14;44.90;;;23.47;;
14613;SDS011;7393;51.446;6.800;2024-01-11T10:40:42;45.60;;;24.23;;
14613;SDS011;7393;51.446;6.800;2024-01-11T10:43:11;44.17;;;24.33;;
14613;SDS011;7393;51.446;6.800;2024-01-11T10:45:41;44.53;;;23.57;;
14613;SDS011;7393;51.446;6.800;2024-01-11T10:48:13;42.23;;;24.13;;
14613;SDS011;7393;51.446;6.800;2024-01-11T10:50:41;48.93;;;24.37;;
14613;SDS011;7393;51.446;6.800;2024-01-11T10:53:12;44.53;;;22.93;;
14613;SDS011;7393;51.446;6.800;2024-01-11T10:55:50;43.33;;;23.57;;
14613;SDS011;7393;51.446;6.800;2024-01-11T10:58:19;44.77;;;24.17;;
14613;SDS011;7393;51.446;6.800;2024-01-11T11:00:47;45.87;;;25.17;;
14613;SDS011;7393;51.446;6.800;2024-01-11T11:03:14;54.97;;;25.43;;
14613;SDS011;7393;51.446;6.800;2024-01-11T11:05:44;44.17;;;23.77;;
14613;SDS011;7393;51.446;6.800;2024-01-11T11:08:12;47.60;;;24.83;;
14613;SDS011;7393;51.446;6.800;2024-01-11T11:10:40;42.93;;;23.03;;
14613;SDS011;7393;51.446;6.800;2024-01-11T11:13:08;42.80;;;23.17;;
14613;SDS011;7393;51.446;6.800;2024-01-11T11:15:38;41.93;;;22.53;;
14613;SDS011;7393;51.446;6.800;2024-01-11T11:18:06;33.07;;;20.03;;
14613;SDS011;7393;51.446;6.800;2024-01-11T11:20:33;36.53;;;20.13;;
14613;SDS011;7393;51.446;6.800;2024-01-11T11:23:03;37.67;;;21.00;;
14613;SDS011;7393;51.446;6.800;2024-01-11T11:25:30;42.00;;;21.10;;
14613;SDS011;7393;51.446;6.800;2024-01-11T11:27:58;38.07;;;20.43;;
14613;SDS011;7393;51.446;6.800;2024-01-11T11:30:26;36.60;;;20.50;;
14613;SDS011;7393;51.446;6.800;2024-01-11T11:32:54;38.83;;;21.27;;
14613;SDS011;7393;51.446;6.800;2024-01-11T11:35:22;35.17;;;19.93;;
14613;SDS011;7393;51.446;6.800;2024-01-11T11:37:53;40.60;;;21.33;;
14613;SDS011;7393;51.446;6.800;2024-01-11T11:40:21;39.07;;;20.67;;
14613;SDS011;7393;51.446;6.800;2024-01-11T11:42:57;37.60;;;20.50;;
14613;SDS011;7393;51.446;6.800;2024-01-11T11:45:27;39.53;;;20.93;;
14613;SDS011;7393;51.446;6.800;2024-01-11T11:47:56;34.97;;;19.07;;
14613;SDS011;7393;51.446;6.800;2024-01-11T11:50:22;37.07;;;20.70;;
14613;SDS011;7393;51.446;6.800;2024-01-11T11:52:53;33.40;;;19.63;;
14613;SDS011;7393;51.446;6.800;2024-01-11T11:55:22;39.63;;;21.47;;
14613;SDS011;7393;51.446;6.800;2024-01-11T11:57:50;37.20;;;19.60;;
14613;SDS011;7393;51.446;6.800;2024-01-11T12:00:17;38.17;;;21.20;;
14613;SDS011;7393;51.446;6.800;2024-01-11T12:02:44;39.10;;;21.50;;
14613;SDS011;7393;51.446;6.800;2024-01-11T12:05:15;38.73;;;21.17;;
14613;SDS011;7393;51.446;6.800;2024-01-11T12:07:43;34.43;;;19.40;;
14613;SDS011;7393;51.446;6.800;2024-01-11T12:10:10;36.13;;;19.67;;
14613;SDS011;7393;51.446;6.800;2024-01-11T12:12:38;34.80;;;20.17;;
14613;SDS011;7393;51.446;6.800;2024-01-11T12:15:05;38.70;;;20.20;;
14613;SDS011;7393;51.446;6.800;2024-01-11T12:17:33;35.23;;;20.90;;
14613;SDS011;7393;51.446;6.800;2024-01-11T12:20:00;39.87;;;20.47;;
14613;SDS011;7393;51.446;6.800;2024-01-11T12:22:29;33.90;;;18.70;;
14613;SDS011;7393;51.446;6.800;2024-01-11T12:24:56;34.90;;;20.07;;
14613;SDS011;7393;51.446;6.800;2024-01-11T12:27:23;38.67;;;19.53;;
14613;SDS011;7393;51.446;6.800;2024-01-11T12:29:51;34.53;;;19.17;;
14613;SDS011;7393;51.446;6.800;2024-01-11T12:32:19;30.33;;;18.47;;
14613;SDS011;7393;51.446;6.800;2024-01-11T12:34:46;33.00;;;18.90;;
14613;SDS011;7393;51.446;6.800;2024-01-11T12:37:13;31.50;;;18.50;;
14613;SDS011;7393;51.446;6.800;2024-01-11T12:39:42;37.13;;;18.73;;
14613;SDS011;7393;51.446;6.800;2024-01-11T12:42:09;31.23;;;18.03;;
14613;SDS011;7393;51.446;6.800;2024-01-11T12:44:36;35.70;;;18.63;;
14613;SDS011;7393;51.446;6.800;2024-01-11T12:47:05;30.13;;;18.90;;
14613;SDS011;7393;51.446;6.800;2024-01-11T12:49:33;37.00;;;19.70;;
14613;SDS011;7393;51.446;6.800;2024-01-11T12:52:00;31.47;;;18.73;;
14613;SDS011;7393;51.446;6.800;2024-01-11T12:54:27;32.40;;;18.30;;
14613;SDS011;7393;51.446;6.800;2024-01-11T12:56:55;33.13;;;17.43;;
14613;SDS011;7393;51.446;6.800;2024-01-11T12:59:24;29.43;;;17.77;;
14613;SDS011;7393;51.446;6.800;2024-01-11T13:01:51;32.47;;;17.30;;
14613;SDS011;7393;51.446;6.800;2024-01-11T13:04:19;31.90;;;17.10;;
14613;SDS011;7393;51.446;6.800;2024-01-11T13:06:46;29.97;;;16.83;;
14613;SDS011;7393;51.446;6.800;2024-01-11T13:09:13;28.40;;;15.47;;
14613;SDS011;7393;51.446;6.800;2024-01-11T13:11:40;28.73;;;15.90;;
14613;SDS011;7393;51.446;6.800;2024-01-11T13:14:08;26.47;;;14.70;;
14613;SDS011;7393;51.446;6.800;2024-01-11T13:16:39;23.73;;;13.77;;
14613;SDS011;7393;51.446;6.800;2024-01-11T13:19:06;25.63;;;13.20;;
14613;SDS011;7393;51.446;6.800;2024-01-11T13:21:33;23.07;;;13.93;;
14613;SDS011;7393;51.446;6.800;2024-01-11T13:24:00;27.67;;;13.73;;
14613;SDS011;7393;51.446;6.800;2024-01-11T13:26:27;25.17;;;13.60;;
14613;SDS011;7393;51.446;6.800;2024-01-11T13:28:53;22.27;;;13.30;;
14613;SDS011;7393;51.446;6.800;2024-01-11T13:31:21;26.30;;;12.53;;
14613;SDS011;7393;51.446;6.800;2024-01-11T13:33:48;23.70;;;14.33;;
14613;SDS011;7393;51.446;6.800;2024-01-11T13:36:15;26.97;;;14.97;;
14613;SDS011;7393;51.446;6.800;2024-01-11T13:38:42;25.60;;;13.57;;
14613;SDS011;7393;51.446;6.800;2024-01-11T13:41:09;26.03;;;13.70;;
14613;SDS011;7393;51.446;6.800;2024-01-11T13:43:35;27.43;;;13.83;;
14613;SDS011;7393;51.446;6.800;2024-01-11T13:46:02;21.77;;;13.50;;
14613;SDS011;7393;51.446;6.800;2024-01-11T13:48:31;25.50;;;13.40;;
14613;SDS011;7393;51.446;6.800;2024-01-11T13:50:58;23.67;;;12.80;;
14613;SDS011;7393;51.446;6.800;2024-01-11T13:53:28;20.87;;;12.73;;
14613;SDS011;7393;51.446;6.800;2024-01-11T13:55:54;20.93;;;11.93;;
14613;SDS011;7393;51.446;6.800;2024-01-11T13:58:21;24.03;;;13.17;;
14613;SDS011;7393;51.446;6.800;2024-01-11T14:00:48;24.47;;;13.10;;
14613;SDS011;7393;51.446;6.800;2024-01-11T14:03:15;23.10;;;12.10;;
14613;SDS011;7393;51.446;6.800;2024-01-11T14:05:43;24.63;;;13.20;;
14613;SDS011;7393;51.446;6.800;2024-01-11T14:08:10;25.07;;;12.00;;
14613;SDS011;7393;51.446;6.800;2024-01-11T14:10:37;23.33;;;12.87;;
14613;SDS011;7393;51.446;6.800;2024-01-11T14:13:03;28.83;;;13.33;;
14613;SDS011;7393;51.446;6.800;2024-01-11T14:15:30;22.03;;;12.30;;
14613;SDS011;7393;51.446;6.800;2024-01-11T14:17:57;24.37;;;13.27;;
14613;SDS011;7393;51.446;6.800;2024-01-11T14:20:24;21.30;;;12.60;;
14613;SDS011;7393;51.446;6.800;2024-01-11T14:22:52;20.77;;;11.80;;
14613;SDS011;7393;51.446;6.800;2024-01-11T14:25:19;23.73;;;12.40;;
14613;SDS011;7393;51.446;6.800;2024-01-11T14:27:47;23.13;;;13.80;;
14613;SDS011;7393;51.446;6.800;2024-01-11T14:30:14;22.17;;;12.13;;
14613;SDS011;7393;51.446;6.800;2024-01-11T14:32:41;28.57;;;12.97;;
14613;SDS011;7393;51.446;6.800;2024-01-11T14:35:08;24.30;;;13.43;;